createdAt,value
2022-08-30T00:01:03.455Z,17.30
2022-08-30T00:03:42.654Z,17.30
2022-08-30T00:06:10.007Z,17.20
2022-08-30T00:08:37.770Z,17.20
2022-08-30T00:11:08.311Z,17.20
2022-08-30T00:13:35.563Z,17.20
2022-08-30T00:16:02.852Z,17.20
2022-08-30T00:18:29.730Z,17.10
2022-08-30T00:20:57.011Z,17.10
2022-08-30T00:23:23.748Z,17.10
2022-08-30T00:25:50.537Z,17.10
2022-08-30T00:28:17.376Z,17.00
2022-08-30T00:30:45.674Z,17.00
2022-08-30T00:33:14.185Z,16.90
2022-08-30T00:35:41.443Z,16.90
2022-08-30T00:38:10.025Z,16.90
2022-08-30T00:40:38.353Z,16.90
2022-08-30T00:43:09.943Z,16.80
2022-08-30T00:45:40.941Z,16.80
2022-08-30T00:48:07.986Z,16.80
2022-08-30T00:50:40.407Z,16.80
2022-08-30T00:53:10.475Z,16.70
2022-08-30T00:55:39.087Z,16.70
2022-08-30T00:58:12.823Z,16.70
2022-08-30T01:00:40.013Z,16.60
2022-08-30T01:03:08.388Z,16.50
2022-08-30T01:05:38.715Z,16.50
2022-08-30T01:08:06.329Z,16.50
2022-08-30T01:10:34.612Z,16.50
2022-08-30T01:13:01.514Z,16.40
2022-08-30T01:15:29.103Z,16.30
2022-08-30T01:17:57.111Z,16.30
2022-08-30T01:20:33.633Z,16.20
2022-08-30T01:23:08.636Z,16.20
2022-08-30T01:25:37.187Z,16.20
2022-08-30T01:28:07.635Z,16.10
2022-08-30T01:30:39.066Z,16.10
2022-08-30T01:33:07.751Z,16.00
2022-08-30T01:35:44.087Z,16.00
2022-08-30T01:38:12.651Z,16.00
2022-08-30T01:40:39.480Z,15.90
2022-08-30T01:43:07.010Z,15.90
2022-08-30T01:45:33.748Z,15.90
2022-08-30T01:48:01.682Z,15.90
2022-08-30T01:50:30.523Z,15.90
2022-08-30T01:52:57.199Z,15.90
2022-08-30T01:55:24.025Z,15.80
2022-08-30T01:57:50.691Z,15.90
2022-08-30T02:00:17.958Z,15.80
2022-08-30T02:02:44.949Z,15.80
2022-08-30T02:05:11.975Z,15.80
2022-08-30T02:07:38.770Z,15.80
2022-08-30T02:10:06.228Z,15.80
2022-08-30T02:12:33.000Z,15.80
2022-08-30T02:15:00.556Z,15.80
2022-08-30T02:17:28.000Z,15.80
2022-08-30T02:19:54.674Z,15.70
2022-08-30T02:22:21.323Z,15.70
2022-08-30T02:24:48.102Z,15.70
2022-08-30T02:27:14.856Z,15.70
2022-08-30T02:29:41.719Z,15.70
2022-08-30T02:32:08.438Z,15.60
2022-08-30T02:34:35.225Z,15.60
2022-08-30T02:37:03.048Z,15.60
2022-08-30T02:39:29.735Z,15.60
2022-08-30T02:41:56.756Z,15.60
2022-08-30T02:44:23.416Z,15.60
2022-08-30T02:46:50.094Z,15.60
2022-08-30T02:49:33.203Z,15.50
2022-08-30T02:52:00.500Z,15.50
2022-08-30T02:54:28.311Z,15.50
2022-08-30T02:56:56.107Z,15.40
2022-08-30T02:59:22.777Z,15.40
2022-08-30T03:01:49.521Z,15.40
2022-08-30T03:04:16.354Z,15.40
2022-08-30T03:06:43.602Z,15.40
2022-08-30T03:09:10.290Z,15.30
2022-08-30T03:11:37.555Z,15.30
2022-08-30T03:14:04.338Z,15.30
2022-08-30T03:16:31.109Z,15.30
2022-08-30T03:18:57.826Z,15.30
2022-08-30T03:21:24.498Z,15.30
2022-08-30T03:23:51.176Z,15.30
2022-08-30T03:26:18.095Z,15.30
2022-08-30T03:28:44.963Z,15.20
2022-08-30T03:31:11.971Z,15.20
2022-08-30T03:33:40.478Z,15.20
2022-08-30T03:36:09.524Z,15.20
2022-08-30T03:38:36.494Z,15.20
2022-08-30T03:41:04.229Z,15.20
2022-08-30T03:43:33.442Z,15.20
2022-08-30T03:46:01.494Z,15.20
2022-08-30T03:48:29.381Z,15.20
2022-08-30T03:50:56.743Z,15.20
2022-08-30T03:53:25.638Z,15.30
2022-08-30T03:55:54.320Z,15.30
2022-08-30T03:58:22.089Z,15.30
2022-08-30T04:00:49.074Z,15.30
2022-08-30T04:03:16.105Z,15.20
2022-08-30T04:05:42.896Z,15.20
2022-08-30T04:08:09.627Z,15.20
2022-08-30T04:10:36.491Z,15.20
2022-08-30T04:13:03.172Z,15.20
2022-08-30T04:15:29.877Z,15.20
2022-08-30T04:17:56.677Z,15.10
2022-08-30T04:20:23.390Z,15.10
2022-08-30T04:22:51.669Z,15.10
2022-08-30T04:25:18.684Z,15.10
2022-08-30T04:27:46.445Z,15.10
2022-08-30T04:30:15.520Z,15.00
2022-08-30T04:32:42.928Z,15.00
2022-08-30T04:35:10.475Z,15.00
2022-08-30T04:37:39.024Z,15.00
2022-08-30T04:40:11.555Z,15.00
2022-08-30T04:42:38.466Z,15.00
2022-08-30T04:45:09.206Z,15.00
2022-08-30T04:47:36.620Z,14.90
2022-08-30T04:50:03.771Z,14.90
2022-08-30T04:52:30.491Z,14.90
2022-08-30T04:54:58.304Z,14.90
2022-08-30T04:57:26.505Z,14.90
2022-08-30T04:59:54.240Z,14.80
2022-08-30T05:02:21.399Z,14.80
2022-08-30T05:05:06.547Z,14.80
2022-08-30T05:07:33.484Z,14.80
2022-08-30T05:10:00.354Z,14.80
2022-08-30T05:12:27.679Z,14.80
2022-08-30T05:14:54.452Z,14.80
2022-08-30T05:17:21.131Z,14.70
2022-08-30T05:19:47.785Z,14.80
2022-08-30T05:22:14.496Z,14.80
2022-08-30T05:24:41.235Z,14.80
2022-08-30T05:27:08.111Z,14.80
2022-08-30T05:29:34.861Z,14.80
2022-08-30T05:32:02.967Z,14.80
2022-08-30T05:34:30.386Z,14.80
2022-08-30T05:36:57.092Z,14.90
2022-08-30T05:39:23.817Z,14.90
2022-08-30T05:41:50.514Z,14.90
2022-08-30T05:44:17.283Z,14.90
2022-08-30T05:46:46.200Z,14.90
2022-08-30T05:49:13.022Z,14.90
2022-08-30T05:51:41.073Z,15.00
2022-08-30T05:54:12.545Z,15.00
2022-08-30T05:56:40.912Z,15.00
2022-08-30T05:59:08.724Z,15.00
2022-08-30T06:01:38.600Z,15.00
2022-08-30T06:04:08.038Z,15.00
2022-08-30T06:06:37.095Z,15.00
2022-08-30T06:09:05.898Z,15.00
2022-08-30T06:11:34.159Z,15.00
2022-08-30T06:14:03.248Z,15.10
2022-08-30T06:16:30.082Z,15.10
2022-08-30T06:18:58.577Z,15.10
2022-08-30T06:21:28.644Z,15.20
2022-08-30T06:23:56.574Z,15.20
2022-08-30T06:26:23.953Z,15.30
2022-08-30T06:28:50.934Z,15.30
2022-08-30T06:31:19.931Z,15.40
2022-08-30T06:33:47.784Z,15.40
2022-08-30T06:36:17.795Z,15.50
2022-08-30T06:38:45.468Z,15.50
2022-08-30T06:41:15.418Z,15.60
2022-08-30T06:43:45.556Z,15.70
2022-08-30T06:46:18.548Z,15.80
2022-08-30T06:48:47.821Z,15.90
2022-08-30T06:51:15.786Z,16.00
2022-08-30T06:53:43.027Z,16.10
2022-08-30T06:56:16.407Z,16.20
2022-08-30T06:58:44.434Z,16.20
2022-08-30T07:01:16.497Z,16.40
2022-08-30T07:03:43.494Z,16.50
2022-08-30T07:06:12.052Z,16.60
2022-08-30T07:08:38.924Z,16.70
2022-08-30T07:11:07.532Z,16.80
2022-08-30T07:13:36.363Z,16.90
2022-08-30T07:16:10.618Z,17.00
2022-08-30T07:18:55.937Z,17.10
2022-08-30T07:21:28.706Z,17.20
2022-08-30T07:23:58.120Z,17.30
2022-08-30T07:26:28.666Z,17.30
2022-08-30T07:28:56.972Z,17.40
2022-08-30T07:31:24.861Z,17.50
2022-08-30T07:33:52.415Z,17.60
2022-08-30T07:36:21.759Z,17.70
2022-08-30T07:38:50.083Z,17.80
2022-08-30T07:41:25.785Z,17.90
2022-08-30T07:43:53.079Z,18.00
2022-08-30T07:46:20.982Z,18.10
2022-08-30T07:48:47.988Z,18.20
2022-08-30T07:51:18.695Z,18.30
2022-08-30T07:53:46.422Z,18.40
2022-08-30T07:56:15.162Z,18.50
2022-08-30T07:58:42.224Z,18.50
2022-08-30T08:01:10.607Z,18.60
2022-08-30T08:03:40.174Z,18.70
2022-08-30T08:06:08.900Z,18.80
2022-08-30T08:08:36.425Z,18.90
2022-08-30T08:11:26.212Z,19.00
2022-08-30T08:13:55.165Z,19.10
2022-08-30T08:16:24.219Z,19.20
2022-08-30T08:18:52.078Z,19.30
2022-08-30T08:21:18.789Z,19.40
2022-08-30T08:23:45.453Z,19.50
2022-08-30T08:26:12.171Z,19.60
2022-08-30T08:28:40.079Z,19.70
2022-08-30T08:31:33.669Z,19.90
2022-08-30T08:34:02.874Z,20.00
2022-08-30T08:36:31.276Z,20.20
2022-08-30T08:38:58.528Z,20.30
2022-08-30T08:41:36.849Z,20.50
2022-08-30T08:44:34.244Z,20.70
2022-08-30T08:47:16.147Z,20.90
2022-08-30T08:49:46.249Z,21.00
2022-08-30T08:52:47.647Z,21.20
2022-08-30T08:55:18.960Z,21.40
2022-08-30T08:57:46.304Z,21.60
2022-08-30T09:00:14.388Z,21.80
2022-08-30T09:02:47.239Z,21.90
2022-08-30T09:05:19.269Z,22.10
2022-08-30T09:07:52.048Z,22.20
2022-08-30T09:10:29.973Z,22.30
2022-08-30T09:13:06.558Z,22.40
2022-08-30T09:15:34.537Z,22.60
2022-08-30T09:18:04.360Z,22.70
2022-08-30T09:20:43.137Z,22.90
2022-08-30T09:26:07.104Z,23.20
2022-08-30T09:28:54.383Z,23.30
2022-08-30T09:31:24.472Z,23.50
2022-08-30T09:34:08.215Z,23.60
2022-08-30T09:36:45.802Z,23.70
2022-08-30T09:39:19.848Z,23.80
2022-08-30T09:41:50.068Z,24.00
2022-08-30T09:44:21.245Z,24.20
2022-08-30T09:46:50.861Z,24.30
2022-08-30T09:49:37.845Z,24.50
2022-08-30T09:52:54.557Z,24.70
2022-08-30T09:55:26.754Z,24.80
2022-08-30T09:58:21.132Z,25.00
2022-08-30T10:01:06.472Z,25.20
2022-08-30T10:04:04.438Z,25.30
2022-08-30T10:06:40.288Z,25.60
2022-08-30T10:09:33.524Z,25.70
2022-08-30T10:12:25.570Z,25.90
2022-08-30T10:15:11.290Z,26.10
2022-08-30T10:18:12.889Z,26.20
2022-08-30T10:20:50.115Z,26.40
2022-08-30T10:23:22.958Z,26.60
2022-08-30T10:25:54.976Z,26.70
2022-08-30T10:28:40.513Z,26.90
2022-08-30T10:31:12.748Z,27.00
2022-08-30T10:33:45.033Z,27.20
2022-08-30T10:36:14.700Z,27.30
2022-08-30T10:38:48.016Z,27.50
2022-08-30T10:41:17.402Z,27.70
2022-08-30T10:44:05.876Z,28.00
2022-08-30T10:46:40.166Z,28.20
2022-08-30T10:49:17.216Z,28.30
2022-08-30T10:51:55.556Z,28.40
2022-08-30T10:54:38.423Z,28.50
2022-08-30T10:57:05.137Z,28.60
2022-08-30T10:59:33.607Z,28.50
2022-08-30T11:02:34.832Z,28.50
2022-08-30T11:05:29.362Z,28.60
2022-08-30T11:08:20.659Z,28.60
2022-08-30T11:10:58.834Z,28.80
2022-08-30T11:13:29.852Z,28.90
2022-08-30T11:16:15.750Z,29.00
2022-08-30T11:18:51.703Z,28.90
2022-08-30T11:21:40.242Z,29.10
2022-08-30T11:24:11.906Z,29.20
2022-08-30T11:26:54.644Z,29.20
2022-08-30T11:29:43.296Z,29.40
2022-08-30T11:32:12.812Z,29.50
2022-08-30T11:34:45.493Z,29.70
2022-08-30T11:37:30.492Z,29.80
2022-08-30T11:40:01.974Z,29.90
2022-08-30T11:42:35.722Z,29.90
2022-08-30T11:45:24.799Z,30.10
2022-08-30T11:47:52.176Z,30.10
2022-08-30T11:50:48.199Z,30.10
2022-08-30T11:53:18.139Z,30.20
2022-08-30T11:56:26.691Z,30.30
2022-08-30T11:59:19.951Z,30.40
2022-08-30T12:01:50.995Z,30.50
2022-08-30T12:04:19.594Z,30.50
2022-08-30T12:06:52.386Z,30.70
2022-08-30T12:09:24.906Z,30.80
2022-08-30T12:11:54.363Z,31.00
2022-08-30T12:14:40.893Z,31.20
2022-08-30T12:17:50.699Z,31.40
2022-08-30T12:20:28.442Z,31.50
2022-08-30T12:22:56.364Z,31.80
2022-08-30T12:25:29.090Z,31.90
2022-08-30T12:28:15.981Z,32.00
2022-08-30T12:30:46.653Z,32.20
2022-08-30T12:33:24.150Z,32.30
2022-08-30T12:35:59.144Z,32.40
2022-08-30T12:38:27.733Z,32.50
2022-08-30T12:40:58.657Z,32.60
2022-08-30T12:43:27.597Z,32.70
2022-08-30T12:46:12.242Z,32.60
2022-08-30T12:48:41.377Z,32.60
2022-08-30T12:51:10.843Z,32.50
2022-08-30T12:53:46.123Z,32.50
2022-08-30T12:56:21.198Z,32.50
2022-08-30T12:58:57.196Z,32.50
2022-08-30T13:01:29.324Z,32.30
2022-08-30T13:04:18.256Z,32.40
2022-08-30T13:06:59.603Z,32.40
2022-08-30T13:09:33.429Z,32.20
2022-08-30T13:12:02.952Z,32.30
2022-08-30T13:14:43.532Z,32.30
2022-08-30T13:17:19.553Z,32.30
2022-08-30T13:20:05.719Z,32.10
2022-08-30T13:22:38.152Z,32.00
2022-08-30T13:25:08.189Z,31.80
2022-08-30T13:27:36.960Z,31.80
2022-08-30T13:30:13.243Z,31.80
2022-08-30T13:32:40.451Z,31.80
2022-08-30T13:35:08.980Z,31.90
2022-08-30T13:37:49.409Z,31.70
2022-08-30T13:40:19.495Z,31.70
2022-08-30T13:42:46.779Z,31.70
2022-08-30T13:48:03.287Z,31.80
2022-08-30T13:50:31.136Z,31.80
2022-08-30T13:52:58.057Z,31.90
2022-08-30T13:55:25.013Z,31.90
2022-08-30T13:57:55.369Z,31.80
2022-08-30T14:00:24.719Z,31.90
2022-08-30T14:03:00.079Z,32.10
2022-08-30T14:06:04.890Z,32.20
2022-08-30T14:11:18.366Z,32.40
2022-08-30T14:16:35.580Z,32.40
2022-08-30T14:19:03.315Z,32.00
2022-08-30T14:21:30.491Z,31.80
2022-08-30T14:23:58.658Z,31.80
2022-08-30T14:26:32.885Z,31.60
2022-08-30T14:29:01.715Z,31.50
2022-08-30T14:31:30.159Z,31.60
2022-08-30T14:33:59.922Z,31.50
2022-08-30T14:36:26.685Z,31.40
2022-08-30T14:38:53.432Z,31.50
2022-08-30T14:41:20.233Z,31.60
2022-08-30T14:43:46.940Z,31.40
2022-08-30T14:46:13.751Z,31.30
2022-08-30T14:48:41.674Z,31.10
2022-08-30T14:51:18.439Z,31.10
2022-08-30T14:53:46.490Z,31.20
2022-08-30T14:56:19.773Z,31.20
2022-08-30T14:58:49.725Z,31.10
2022-08-30T15:01:17.000Z,31.20
2022-08-30T15:03:47.311Z,31.10
2022-08-30T15:06:14.252Z,31.10
2022-08-30T15:08:41.425Z,31.10
2022-08-30T15:11:12.915Z,31.10
2022-08-30T15:13:41.136Z,31.00
2022-08-30T15:16:12.768Z,31.10
2022-08-30T15:18:39.731Z,31.00
2022-08-30T15:21:09.134Z,31.00
2022-08-30T15:23:36.988Z,31.10
2022-08-30T15:26:04.295Z,31.20
2022-08-30T15:28:31.199Z,31.20
2022-08-30T15:30:58.108Z,31.30
2022-08-30T15:33:24.877Z,31.40
2022-08-30T15:35:52.348Z,31.50
2022-08-30T15:38:21.871Z,31.60
2022-08-30T15:40:49.981Z,31.70
2022-08-30T15:43:17.033Z,31.90
2022-08-30T15:45:44.138Z,32.00
2022-08-30T15:48:11.055Z,32.20
2022-08-30T15:50:37.957Z,32.30
2022-08-30T15:53:07.395Z,32.50
2022-08-30T15:55:34.292Z,32.60
2022-08-30T15:58:01.052Z,32.70
2022-08-30T16:00:27.900Z,32.70
2022-08-30T16:02:54.667Z,32.70
2022-08-30T16:05:23.686Z,32.70
2022-08-30T16:07:52.280Z,32.70
2022-08-30T16:10:19.482Z,32.70
2022-08-30T16:12:46.269Z,32.70
2022-08-30T16:15:13.096Z,32.70
2022-08-30T16:17:39.832Z,32.70
2022-08-30T16:20:07.888Z,32.80
2022-08-30T16:22:35.846Z,32.80
2022-08-30T16:25:04.837Z,32.80
2022-08-30T16:27:33.637Z,32.90
2022-08-30T16:30:00.483Z,32.80
2022-08-30T16:32:27.183Z,32.80
2022-08-30T16:34:53.987Z,32.70
2022-08-30T16:37:20.700Z,32.50
2022-08-30T16:39:47.364Z,32.50
2022-08-30T16:42:15.035Z,32.50
2022-08-30T16:44:48.311Z,32.40
2022-08-30T16:47:16.512Z,32.30
2022-08-30T16:49:44.144Z,32.20
2022-08-30T16:52:11.403Z,32.10
2022-08-30T16:54:38.553Z,32.00
2022-08-30T16:57:06.454Z,31.80
2022-08-30T16:59:33.625Z,31.80
2022-08-30T17:02:00.951Z,31.60
2022-08-30T17:04:27.715Z,31.50
2022-08-30T17:06:54.452Z,31.40
2022-08-30T17:09:22.285Z,31.30
2022-08-30T17:11:49.221Z,31.10
2022-08-30T17:14:22.916Z,31.10
2022-08-30T17:16:55.804Z,31.00
2022-08-30T17:19:26.759Z,30.80
2022-08-30T17:21:56.198Z,30.80
2022-08-30T17:24:22.970Z,30.60
2022-08-30T17:26:51.352Z,30.50
2022-08-30T17:29:18.121Z,30.40
2022-08-30T17:31:50.991Z,30.20
2022-08-30T17:34:21.109Z,30.20
2022-08-30T17:36:50.554Z,30.00
2022-08-30T17:39:17.415Z,29.90
2022-08-30T17:41:50.269Z,29.70
2022-08-30T17:44:20.219Z,29.60
2022-08-30T17:46:47.150Z,29.40
2022-08-30T17:49:15.093Z,29.30
2022-08-30T17:51:42.783Z,29.10
2022-08-30T17:54:12.649Z,29.10
2022-08-30T17:56:40.706Z,28.90
2022-08-30T17:59:09.206Z,28.80
2022-08-30T18:01:37.023Z,28.70
2022-08-30T18:04:06.045Z,28.60
2022-08-30T18:06:33.500Z,28.50
2022-08-30T18:09:01.075Z,28.40
2022-08-30T18:11:27.799Z,28.30
2022-08-30T18:13:54.467Z,28.10
2022-08-30T18:16:21.684Z,28.00
2022-08-30T18:21:41.297Z,27.80
2022-08-30T18:24:08.443Z,27.60
2022-08-30T18:26:36.395Z,27.50
2022-08-30T18:29:10.540Z,27.40
2022-08-30T18:31:37.425Z,27.30
2022-08-30T18:34:04.172Z,27.20
2022-08-30T18:36:31.077Z,27.10
2022-08-30T18:38:58.537Z,26.90
2022-08-30T18:41:26.114Z,26.80
2022-08-30T18:44:06.030Z,26.70
2022-08-30T18:47:31.858Z,26.60
2022-08-30T18:49:27.815Z,26.50
2022-08-30T18:51:54.535Z,26.40
2022-08-30T18:54:21.468Z,26.40
2022-08-30T18:56:49.596Z,26.30
2022-08-30T18:59:17.276Z,26.10
2022-08-30T19:01:45.421Z,26.00
2022-08-30T19:04:22.540Z,25.90
2022-08-30T19:06:59.416Z,25.80
2022-08-30T19:09:26.598Z,25.70
2022-08-30T19:11:54.221Z,25.70
2022-08-30T19:14:21.409Z,25.60
2022-08-30T19:16:48.766Z,25.50
2022-08-30T19:19:16.014Z,25.40
2022-08-30T19:21:42.722Z,25.40
2022-08-30T19:24:09.545Z,25.30
2022-08-30T19:26:38.313Z,25.20
2022-08-30T19:29:06.753Z,25.10
2022-08-30T19:31:34.001Z,25.00
2022-08-30T19:34:01.077Z,25.00
2022-08-30T19:36:28.831Z,24.80
2022-08-30T19:38:55.765Z,24.80
2022-08-30T19:41:23.200Z,24.70
2022-08-30T19:43:51.547Z,24.60
2022-08-30T19:46:18.239Z,24.50
2022-08-30T19:48:45.086Z,24.40
2022-08-30T19:51:13.845Z,24.30
2022-08-30T19:53:41.511Z,24.30
2022-08-30T19:56:08.348Z,24.20
2022-08-30T19:58:35.047Z,24.10
2022-08-30T20:01:13.054Z,24.00
2022-08-30T20:03:47.424Z,24.00
2022-08-30T20:06:19.015Z,23.80
2022-08-30T20:08:47.127Z,23.70
2022-08-30T20:11:18.826Z,23.60
2022-08-30T20:13:45.865Z,23.50
2022-08-30T20:16:14.257Z,23.50
2022-08-30T20:18:43.409Z,23.40
2022-08-30T20:21:13.463Z,23.40
2022-08-30T20:23:41.974Z,23.30
2022-08-30T20:24:26.994Z,27.90
2022-08-30T20:26:10.013Z,23.20
2022-08-30T20:28:37.815Z,23.20
2022-08-30T20:31:08.565Z,23.10
2022-08-30T20:33:37.610Z,23.00
2022-08-30T20:36:06.633Z,22.90
2022-08-30T20:38:33.551Z,22.90
2022-08-30T20:41:02.537Z,22.80
2022-08-30T20:43:30.459Z,22.70
2022-08-30T20:45:57.355Z,22.70
2022-08-30T20:48:26.019Z,22.60
2022-08-30T20:50:52.698Z,22.60
2022-08-30T20:53:19.351Z,22.50
2022-08-30T20:55:47.342Z,22.40
2022-08-30T20:58:14.398Z,22.40
2022-08-30T21:00:45.867Z,22.30
2022-08-30T21:03:27.611Z,22.30
2022-08-30T21:05:55.382Z,22.30
2022-08-30T21:08:22.123Z,22.20
2022-08-30T21:10:48.922Z,22.20
2022-08-30T21:13:15.783Z,22.20
2022-08-30T21:15:45.902Z,22.10
2022-08-30T21:18:14.183Z,22.10
2022-08-30T21:20:41.259Z,22.00
2022-08-30T21:23:08.128Z,22.00
2022-08-30T21:25:39.133Z,21.90
2022-08-30T21:28:06.901Z,21.90
2022-08-30T21:30:34.905Z,21.90
2022-08-30T21:33:04.668Z,21.80
2022-08-30T21:35:49.987Z,21.80
2022-08-30T21:38:17.198Z,21.80
2022-08-30T21:40:44.427Z,21.70
2022-08-30T21:43:11.409Z,21.70
2022-08-30T21:45:45.202Z,21.60
2022-08-30T21:48:13.672Z,21.60
2022-08-30T21:50:43.640Z,21.50
2022-08-30T21:53:10.625Z,21.50
2022-08-30T21:55:37.384Z,21.40
2022-08-30T21:58:04.037Z,21.40
2022-08-30T22:00:31.731Z,21.40
2022-08-30T22:02:58.501Z,21.30
2022-08-30T22:05:25.395Z,21.30
2022-08-30T22:07:52.079Z,21.20
2022-08-30T22:10:19.575Z,21.20
2022-08-30T22:12:46.283Z,21.10
2022-08-30T22:15:14.322Z,21.10
2022-08-30T22:17:41.264Z,21.00
2022-08-30T22:20:08.685Z,21.00
2022-08-30T22:22:35.379Z,21.00
2022-08-30T22:25:02.621Z,20.90
2022-08-30T22:27:31.287Z,20.90
2022-08-30T22:29:58.100Z,20.80
2022-08-30T22:32:24.779Z,20.70
2022-08-30T22:34:51.538Z,20.70
2022-08-30T22:37:18.260Z,20.70
2022-08-30T22:39:45.070Z,20.70
2022-08-30T22:42:11.737Z,20.70
2022-08-30T22:44:38.425Z,20.60
2022-08-30T22:47:05.317Z,20.60
2022-08-30T22:49:32.229Z,20.60
2022-08-30T22:51:58.929Z,20.50
2022-08-30T22:54:25.575Z,20.40
2022-08-30T22:56:52.278Z,20.40
2022-08-30T22:59:18.990Z,20.40
2022-08-30T23:01:47.027Z,20.40
2022-08-30T23:04:13.906Z,20.40
2022-08-30T23:06:41.052Z,20.30
2022-08-30T23:09:08.241Z,20.30
2022-08-30T23:11:38.132Z,20.30
2022-08-30T23:14:05.931Z,20.30
2022-08-30T23:16:33.656Z,20.30
2022-08-30T23:19:00.405Z,20.30
2022-08-30T23:21:29.164Z,20.20
2022-08-30T23:24:15.474Z,20.20
2022-08-30T23:27:03.197Z,20.20
2022-08-30T23:29:49.238Z,20.10
2022-08-30T23:32:34.684Z,20.10
2022-08-30T23:35:20.041Z,20.10
2022-08-30T23:38:10.412Z,20.10
2022-08-30T23:40:55.770Z,20.00
2022-08-30T23:43:41.215Z,20.00
2022-08-30T23:46:26.640Z,20.00
2022-08-30T23:49:12.076Z,20.00
2022-08-30T23:51:57.619Z,20.00
2022-08-30T23:54:43.508Z,20.00
2022-08-30T23:57:28.980Z,19.90
